sensor_id;sensor_type;location;lat;lon;timestamp;P1;durP1;ratioP1;P2;durP2;ratioP2
29686;SDS011;16599;47.078;15.536;2022-11-15T00:00:57;201.27;;;77.57;;
29686;SDS011;16599;47.078;15.536;2022-11-15T00:03:25;202.20;;;76.43;;
29686;SDS011;16599;47.078;15.536;2022-11-15T00:06:08;202.23;;;78.82;;
29686;SDS011;16599;47.078;15.536;2022-11-15T00:08:57;192.38;;;77.15;;
29686;SDS011;16599;47.078;15.536;2022-11-15T00:14:23;202.13;;;74.45;;
29686;SDS011;16599;47.078;15.536;2022-11-15T00:16:50;205.95;;;77.18;;
29686;SDS011;16599;47.078;15.536;2022-11-15T00:19:17;204.00;;;75.53;;
29686;SDS011;16599;47.078;15.536;2022-11-15T00:21:44;212.30;;;76.60;;
29686;SDS011;16599;47.078;15.536;2022-11-15T00:24:10;196.07;;;74.43;;
29686;SDS011;16599;47.078;15.536;2022-11-15T00:26:37;196.93;;;76.40;;
29686;SDS011;16599;47.078;15.536;2022-11-15T00:29:04;192.25;;;73.85;;
29686;SDS011;16599;47.078;15.536;2022-11-15T00:31:31;179.20;;;71.00;;
29686;SDS011;16599;47.078;15.536;2022-11-15T00:33:58;184.43;;;71.95;;
29686;SDS011;16599;47.078;15.536;2022-11-15T00:36:25;208.75;;;72.78;;
29686;SDS011;16599;47.078;15.536;2022-11-15T00:38:53;219.80;;;72.32;;
29686;SDS011;16599;47.078;15.536;2022-11-15T00:41:36;205.15;;;74.78;;
29686;SDS011;16599;47.078;15.536;2022-11-15T00:44:03;229.38;;;71.18;;
29686;SDS011;16599;47.078;15.536;2022-11-15T00:46:29;269.50;;;71.72;;
29686;SDS011;16599;47.078;15.536;2022-11-15T00:48:56;249.65;;;73.68;;
29686;SDS011;16599;47.078;15.536;2022-11-15T00:51:23;276.77;;;76.32;;
29686;SDS011;16599;47.078;15.536;2022-11-15T00:53:50;240.57;;;76.82;;
29686;SDS011;16599;47.078;15.536;2022-11-15T00:56:16;275.80;;;75.82;;
29686;SDS011;16599;47.078;15.536;2022-11-15T00:58:43;242.50;;;77.00;;
29686;SDS011;16599;47.078;15.536;2022-11-15T01:01:11;238.35;;;77.43;;
29686;SDS011;16599;47.078;15.536;2022-11-15T01:03:40;273.02;;;79.60;;
29686;SDS011;16599;47.078;15.536;2022-11-15T01:06:07;288.70;;;79.40;;
29686;SDS011;16599;47.078;15.536;2022-11-15T01:08:35;319.65;;;81.38;;
29686;SDS011;16599;47.078;15.536;2022-11-15T01:11:03;280.63;;;77.57;;
29686;SDS011;16599;47.078;15.536;2022-11-15T01:13:32;277.77;;;77.78;;
29686;SDS011;16599;47.078;15.536;2022-11-15T01:16:34;283.35;;;80.32;;
29686;SDS011;16599;47.078;15.536;2022-11-15T01:18:53;291.92;;;81.18;;
29686;SDS011;16599;47.078;15.536;2022-11-15T01:21:20;312.67;;;77.80;;
29686;SDS011;16599;47.078;15.536;2022-11-15T01:23:46;298.23;;;81.97;;
29686;SDS011;16599;47.078;15.536;2022-11-15T01:26:14;322.50;;;84.93;;
29686;SDS011;16599;47.078;15.536;2022-11-15T01:28:41;301.65;;;86.40;;
29686;SDS011;16599;47.078;15.536;2022-11-15T01:31:13;290.08;;;82.28;;
29686;SDS011;16599;47.078;15.536;2022-11-15T01:33:42;282.45;;;83.82;;
29686;SDS011;16599;47.078;15.536;2022-11-15T01:36:16;292.45;;;84.35;;
29686;SDS011;16599;47.078;15.536;2022-11-15T01:38:54;294.65;;;82.32;;
29686;SDS011;16599;47.078;15.536;2022-11-15T01:41:26;270.40;;;82.35;;
29686;SDS011;16599;47.078;15.536;2022-11-15T01:43:56;270.92;;;82.70;;
29686;SDS011;16599;47.078;15.536;2022-11-15T01:46:44;272.20;;;82.55;;
29686;SDS011;16599;47.078;15.536;2022-11-15T01:49:14;271.27;;;79.63;;
29686;SDS011;16599;47.078;15.536;2022-11-15T01:51:43;277.52;;;83.43;;
29686;SDS011;16599;47.078;15.536;2022-11-15T01:54:12;261.98;;;78.68;;
29686;SDS011;16599;47.078;15.536;2022-11-15T01:56:46;266.10;;;80.80;;
29686;SDS011;16599;47.078;15.536;2022-11-15T01:59:17;273.05;;;80.15;;
29686;SDS011;16599;47.078;15.536;2022-11-15T02:01:45;247.45;;;79.30;;
29686;SDS011;16599;47.078;15.536;2022-11-15T02:06:41;268.23;;;90.03;;
29686;SDS011;16599;47.078;15.536;2022-11-15T02:09:09;255.20;;;80.85;;
29686;SDS011;16599;47.078;15.536;2022-11-15T02:11:37;242.50;;;77.18;;
29686;SDS011;16599;47.078;15.536;2022-11-15T02:14:03;264.40;;;78.60;;
29686;SDS011;16599;47.078;15.536;2022-11-15T02:36:00;217.45;;;73.07;;
29686;SDS011;16599;47.078;15.536;2022-11-15T02:39:35;221.57;;;73.50;;
29686;SDS011;16599;47.078;15.536;2022-11-15T02:41:42;220.85;;;74.05;;
29686;SDS011;16599;47.078;15.536;2022-11-15T02:44:21;212.15;;;73.00;;
29686;SDS011;16599;47.078;15.536;2022-11-15T02:46:57;211.05;;;71.82;;
29686;SDS011;16599;47.078;15.536;2022-11-15T02:49:43;208.27;;;71.15;;
29686;SDS011;16599;47.078;15.536;2022-11-15T02:52:16;199.15;;;67.70;;
29686;SDS011;16599;47.078;15.536;2022-11-15T02:54:55;179.75;;;66.65;;
29686;SDS011;16599;47.078;15.536;2022-11-15T02:57:45;200.88;;;67.57;;
29686;SDS011;16599;47.078;15.536;2022-11-15T03:00:15;228.90;;;70.07;;
29686;SDS011;16599;47.078;15.536;2022-11-15T03:05:56;269.08;;;68.97;;
29686;SDS011;16599;47.078;15.536;2022-11-15T03:08:37;195.35;;;66.20;;
29686;SDS011;16599;47.078;15.536;2022-11-15T03:11:22;206.18;;;66.13;;
29686;SDS011;16599;47.078;15.536;2022-11-15T03:19:05;328.27;;;67.40;;
29686;SDS011;16599;47.078;15.536;2022-11-15T03:21:39;238.52;;;68.88;;
29686;SDS011;16599;47.078;15.536;2022-11-15T03:24:07;436.40;;;69.38;;
29686;SDS011;16599;47.078;15.536;2022-11-15T03:26:35;320.88;;;69.78;;
29686;SDS011;16599;47.078;15.536;2022-11-15T03:29:14;339.50;;;69.00;;
29686;SDS011;16599;47.078;15.536;2022-11-15T03:31:45;407.83;;;66.55;;
29686;SDS011;16599;47.078;15.536;2022-11-15T03:36:58;373.63;;;69.45;;
29686;SDS011;16599;47.078;15.536;2022-11-15T03:39:25;391.83;;;67.85;;
29686;SDS011;16599;47.078;15.536;2022-11-15T03:44:41;249.43;;;73.82;;
29686;SDS011;16599;47.078;15.536;2022-11-15T03:47:36;470.80;;;69.55;;
29686;SDS011;16599;47.078;15.536;2022-11-15T03:50:12;388.52;;;70.97;;
29686;SDS011;16599;47.078;15.536;2022-11-15T03:52:41;266.15;;;72.60;;
29686;SDS011;16599;47.078;15.536;2022-11-15T03:55:09;246.38;;;71.47;;
29686;SDS011;16599;47.078;15.536;2022-11-15T03:57:39;216.68;;;69.20;;
29686;SDS011;16599;47.078;15.536;2022-11-15T04:00:06;301.25;;;71.25;;
29686;SDS011;16599;47.078;15.536;2022-11-15T04:02:34;211.88;;;69.30;;
29686;SDS011;16599;47.078;15.536;2022-11-15T04:05:00;225.40;;;68.00;;
29686;SDS011;16599;47.078;15.536;2022-11-15T04:07:27;309.17;;;69.45;;
29686;SDS011;16599;47.078;15.536;2022-11-15T04:09:54;321.40;;;67.35;;
29686;SDS011;16599;47.078;15.536;2022-11-15T04:12:35;239.45;;;67.20;;
29686;SDS011;16599;47.078;15.536;2022-11-15T04:15:04;219.90;;;66.32;;
29686;SDS011;16599;47.078;15.536;2022-11-15T04:17:41;208.95;;;66.55;;
29686;SDS011;16599;47.078;15.536;2022-11-15T04:20:20;358.83;;;67.60;;
29686;SDS011;16599;47.078;15.536;2022-11-15T04:26:02;206.88;;;66.65;;
29686;SDS011;16599;47.078;15.536;2022-11-15T04:28:34;229.75;;;66.88;;
29686;SDS011;16599;47.078;15.536;2022-11-15T04:31:01;236.27;;;67.82;;
29686;SDS011;16599;47.078;15.536;2022-11-15T04:33:27;285.75;;;72.20;;
29686;SDS011;16599;47.078;15.536;2022-11-15T04:35:55;395.15;;;72.35;;
29686;SDS011;16599;47.078;15.536;2022-11-15T04:38:40;347.35;;;66.97;;
29686;SDS011;16599;47.078;15.536;2022-11-15T04:41:07;262.33;;;70.18;;
29686;SDS011;16599;47.078;15.536;2022-11-15T04:43:34;248.32;;;74.50;;
29686;SDS011;16599;47.078;15.536;2022-11-15T04:46:01;356.38;;;76.13;;
29686;SDS011;16599;47.078;15.536;2022-11-15T04:48:28;291.30;;;73.82;;
29686;SDS011;16599;47.078;15.536;2022-11-15T04:50:54;315.17;;;72.40;;
29686;SDS011;16599;47.078;15.536;2022-11-15T04:53:21;339.65;;;77.63;;
29686;SDS011;16599;47.078;15.536;2022-11-15T04:55:48;399.13;;;77.78;;
29686;SDS011;16599;47.078;15.536;2022-11-15T04:58:15;268.08;;;76.03;;
29686;SDS011;16599;47.078;15.536;2022-11-15T05:00:41;259.45;;;72.57;;
29686;SDS011;16599;47.078;15.536;2022-11-15T05:03:09;248.00;;;75.40;;
29686;SDS011;16599;47.078;15.536;2022-11-15T05:05:54;256.13;;;72.95;;
29686;SDS011;16599;47.078;15.536;2022-11-15T05:08:21;271.08;;;72.22;;
29686;SDS011;16599;47.078;15.536;2022-11-15T05:10:48;268.60;;;74.28;;
29686;SDS011;16599;47.078;15.536;2022-11-15T05:13:15;292.67;;;72.85;;
29686;SDS011;16599;47.078;15.536;2022-11-15T05:15:41;349.73;;;74.00;;
29686;SDS011;16599;47.078;15.536;2022-11-15T05:18:08;353.50;;;75.32;;
29686;SDS011;16599;47.078;15.536;2022-11-15T05:20:35;281.38;;;74.43;;
29686;SDS011;16599;47.078;15.536;2022-11-15T05:23:02;468.33;;;75.30;;
29686;SDS011;16599;47.078;15.536;2022-11-15T05:25:29;291.90;;;69.90;;
29686;SDS011;16599;47.078;15.536;2022-11-15T05:27:56;256.73;;;72.97;;
29686;SDS011;16599;47.078;15.536;2022-11-15T05:30:23;387.63;;;75.18;;
29686;SDS011;16599;47.078;15.536;2022-11-15T05:32:50;280.52;;;74.70;;
29686;SDS011;16599;47.078;15.536;2022-11-15T05:35:24;281.02;;;74.18;;
29686;SDS011;16599;47.078;15.536;2022-11-15T05:38:05;279.60;;;72.65;;
29686;SDS011;16599;47.078;15.536;2022-11-15T05:40:32;369.20;;;68.82;;
29686;SDS011;16599;47.078;15.536;2022-11-15T05:43:00;251.75;;;71.80;;
29686;SDS011;16599;47.078;15.536;2022-11-15T05:45:30;295.08;;;70.47;;
29686;SDS011;16599;47.078;15.536;2022-11-15T05:47:59;343.08;;;71.38;;
29686;SDS011;16599;47.078;15.536;2022-11-15T05:50:30;266.48;;;71.85;;
29686;SDS011;16599;47.078;15.536;2022-11-15T05:52:57;408.73;;;65.78;;
29686;SDS011;16599;47.078;15.536;2022-11-15T05:55:30;329.70;;;66.90;;
29686;SDS011;16599;47.078;15.536;2022-11-15T05:57:57;238.98;;;65.57;;
29686;SDS011;16599;47.078;15.536;2022-11-15T06:00:24;254.95;;;69.85;;
29686;SDS011;16599;47.078;15.536;2022-11-15T06:02:51;247.63;;;67.57;;
29686;SDS011;16599;47.078;15.536;2022-11-15T06:05:18;283.65;;;63.50;;
29686;SDS011;16599;47.078;15.536;2022-11-15T06:07:44;415.08;;;65.43;;
29686;SDS011;16599;47.078;15.536;2022-11-15T06:10:11;243.98;;;58.60;;
29686;SDS011;16599;47.078;15.536;2022-11-15T06:12:38;321.70;;;65.05;;
29686;SDS011;16599;47.078;15.536;2022-11-15T06:15:05;347.73;;;65.78;;
29686;SDS011;16599;47.078;15.536;2022-11-15T06:17:32;379.25;;;65.40;;
29686;SDS011;16599;47.078;15.536;2022-11-15T06:19:59;245.15;;;61.75;;
29686;SDS011;16599;47.078;15.536;2022-11-15T06:22:26;229.50;;;63.88;;
29686;SDS011;16599;47.078;15.536;2022-11-15T06:24:52;256.70;;;63.58;;
29686;SDS011;16599;47.078;15.536;2022-11-15T06:27:19;241.27;;;65.07;;
29686;SDS011;16599;47.078;15.536;2022-11-15T06:29:46;229.98;;;61.90;;
29686;SDS011;16599;47.078;15.536;2022-11-15T06:32:13;230.45;;;62.35;;
29686;SDS011;16599;47.078;15.536;2022-11-15T06:34:40;246.68;;;63.45;;
29686;SDS011;16599;47.078;15.536;2022-11-15T06:37:06;251.07;;;74.57;;
29686;SDS011;16599;47.078;15.536;2022-11-15T06:39:33;224.57;;;60.95;;
29686;SDS011;16599;47.078;15.536;2022-11-15T06:42:00;234.25;;;61.95;;
29686;SDS011;16599;47.078;15.536;2022-11-15T06:44:26;247.20;;;65.63;;
29686;SDS011;16599;47.078;15.536;2022-11-15T06:46:53;228.13;;;62.15;;
29686;SDS011;16599;47.078;15.536;2022-11-15T06:49:20;229.15;;;62.67;;
29686;SDS011;16599;47.078;15.536;2022-11-15T06:51:47;232.00;;;62.90;;
29686;SDS011;16599;47.078;15.536;2022-11-15T06:54:14;231.48;;;63.13;;
29686;SDS011;16599;47.078;15.536;2022-11-15T06:56:41;220.38;;;61.53;;
29686;SDS011;16599;47.078;15.536;2022-11-15T06:59:08;230.88;;;63.35;;
29686;SDS011;16599;47.078;15.536;2022-11-15T07:01:34;228.35;;;60.38;;
29686;SDS011;16599;47.078;15.536;2022-11-15T07:04:01;273.13;;;60.15;;
29686;SDS011;16599;47.078;15.536;2022-11-15T07:06:28;258.52;;;58.20;;
29686;SDS011;16599;47.078;15.536;2022-11-15T07:08:55;279.15;;;60.33;;
29686;SDS011;16599;47.078;15.536;2022-11-15T07:11:22;253.35;;;59.38;;
29686;SDS011;16599;47.078;15.536;2022-11-15T07:13:48;246.90;;;65.45;;
29686;SDS011;16599;47.078;15.536;2022-11-15T07:16:15;243.82;;;62.65;;
29686;SDS011;16599;47.078;15.536;2022-11-15T07:18:42;245.07;;;64.82;;
29686;SDS011;16599;47.078;15.536;2022-11-15T07:21:10;284.50;;;61.33;;
29686;SDS011;16599;47.078;15.536;2022-11-15T07:23:37;255.50;;;64.85;;
29686;SDS011;16599;47.078;15.536;2022-11-15T07:26:05;234.63;;;60.05;;
29686;SDS011;16599;47.078;15.536;2022-11-15T07:28:33;257.48;;;61.15;;
29686;SDS011;16599;47.078;15.536;2022-11-15T07:31:04;297.88;;;63.45;;
29686;SDS011;16599;47.078;15.536;2022-11-15T07:33:31;283.52;;;64.75;;
29686;SDS011;16599;47.078;15.536;2022-11-15T07:35:59;267.27;;;64.85;;
29686;SDS011;16599;47.078;15.536;2022-11-15T07:38:31;255.90;;;63.83;;
29686;SDS011;16599;47.078;15.536;2022-11-15T07:41:06;294.83;;;67.18;;
29686;SDS011;16599;47.078;15.536;2022-11-15T07:43:33;282.70;;;63.80;;
29686;SDS011;16599;47.078;15.536;2022-11-15T07:46:04;271.35;;;66.45;;
29686;SDS011;16599;47.078;15.536;2022-11-15T07:48:36;267.23;;;64.53;;
29686;SDS011;16599;47.078;15.536;2022-11-15T07:51:11;266.73;;;69.53;;
29686;SDS011;16599;47.078;15.536;2022-11-15T07:53:40;252.65;;;65.70;;
29686;SDS011;16599;47.078;15.536;2022-11-15T07:56:08;255.00;;;65.13;;
29686;SDS011;16599;47.078;15.536;2022-11-15T07:58:35;226.07;;;59.67;;
29686;SDS011;16599;47.078;15.536;2022-11-15T08:01:03;219.43;;;60.13;;
29686;SDS011;16599;47.078;15.536;2022-11-15T08:03:30;214.32;;;58.15;;
29686;SDS011;16599;47.078;15.536;2022-11-15T08:05:58;222.32;;;61.30;;
29686;SDS011;16599;47.078;15.536;2022-11-15T08:08:25;238.50;;;63.83;;
29686;SDS011;16599;47.078;15.536;2022-11-15T08:10:52;229.98;;;62.78;;
29686;SDS011;16599;47.078;15.536;2022-11-15T08:13:19;223.35;;;61.85;;
29686;SDS011;16599;47.078;15.536;2022-11-15T08:15:47;213.70;;;61.05;;
29686;SDS011;16599;47.078;15.536;2022-11-15T08:18:21;206.98;;;59.10;;
29686;SDS011;16599;47.078;15.536;2022-11-15T08:20:48;210.43;;;60.33;;
29686;SDS011;16599;47.078;15.536;2022-11-15T08:23:15;200.70;;;60.20;;
29686;SDS011;16599;47.078;15.536;2022-11-15T08:25:41;193.68;;;59.20;;
29686;SDS011;16599;47.078;15.536;2022-11-15T08:28:09;195.60;;;60.03;;
29686;SDS011;16599;47.078;15.536;2022-11-15T08:30:37;198.82;;;58.90;;
29686;SDS011;16599;47.078;15.536;2022-11-15T08:33:10;192.80;;;59.43;;
29686;SDS011;16599;47.078;15.536;2022-11-15T08:35:38;191.48;;;57.35;;
29686;SDS011;16599;47.078;15.536;2022-11-15T08:38:06;191.45;;;61.40;;
29686;SDS011;16599;47.078;15.536;2022-11-15T08:40:33;189.32;;;60.10;;
29686;SDS011;16599;47.078;15.536;2022-11-15T08:43:00;200.23;;;62.90;;
29686;SDS011;16599;47.078;15.536;2022-11-15T08:45:29;200.70;;;61.70;;
29686;SDS011;16599;47.078;15.536;2022-11-15T08:47:57;195.82;;;61.53;;
29686;SDS011;16599;47.078;15.536;2022-11-15T08:50:28;206.70;;;62.13;;
29686;SDS011;16599;47.078;15.536;2022-11-15T08:52:55;205.32;;;63.83;;
29686;SDS011;16599;47.078;15.536;2022-11-15T08:55:22;226.98;;;65.35;;
29686;SDS011;16599;47.078;15.536;2022-11-15T08:57:50;225.38;;;66.60;;
29686;SDS011;16599;47.078;15.536;2022-11-15T09:00:17;234.88;;;68.03;;
29686;SDS011;16599;47.078;15.536;2022-11-15T09:02:46;234.30;;;64.93;;
29686;SDS011;16599;47.078;15.536;2022-11-15T09:05:12;269.90;;;65.20;;
29686;SDS011;16599;47.078;15.536;2022-11-15T09:07:39;251.80;;;66.65;;
29686;SDS011;16599;47.078;15.536;2022-11-15T09:10:06;252.75;;;67.13;;
29686;SDS011;16599;47.078;15.536;2022-11-15T09:12:33;266.77;;;69.53;;
29686;SDS011;16599;47.078;15.536;2022-11-15T09:15:00;251.80;;;70.07;;
29686;SDS011;16599;47.078;15.536;2022-11-15T09:17:27;251.10;;;69.20;;
29686;SDS011;16599;47.078;15.536;2022-11-15T09:19:54;259.63;;;71.15;;
29686;SDS011;16599;47.078;15.536;2022-11-15T09:22:20;253.40;;;68.25;;
29686;SDS011;16599;47.078;15.536;2022-11-15T09:24:47;248.18;;;68.18;;
29686;SDS011;16599;47.078;15.536;2022-11-15T09:27:14;242.65;;;68.25;;
29686;SDS011;16599;47.078;15.536;2022-11-15T09:29:41;245.57;;;68.65;;
29686;SDS011;16599;47.078;15.536;2022-11-15T09:32:07;250.07;;;68.90;;
29686;SDS011;16599;47.078;15.536;2022-11-15T09:34:35;261.10;;;68.75;;
29686;SDS011;16599;47.078;15.536;2022-11-15T09:37:01;256.13;;;69.18;;
29686;SDS011;16599;47.078;15.536;2022-11-15T09:39:28;266.70;;;70.68;;
29686;SDS011;16599;47.078;15.536;2022-11-15T09:42:05;229.73;;;65.70;;
29686;SDS011;16599;47.078;15.536;2022-11-15T09:48:00;247.27;;;68.68;;
29686;SDS011;16599;47.078;15.536;2022-11-15T09:53:14;253.43;;;66.95;;
29686;SDS011;16599;47.078;15.536;2022-11-15T09:56:20;241.50;;;68.65;;
29686;SDS011;16599;47.078;15.536;2022-11-15T09:59:04;248.13;;;68.40;;
29686;SDS011;16599;47.078;15.536;2022-11-15T10:04:39;240.45;;;68.35;;
29686;SDS011;16599;47.078;15.536;2022-11-15T10:07:21;256.60;;;71.15;;
29686;SDS011;16599;47.078;15.536;2022-11-15T10:09:56;236.35;;;66.35;;
29686;SDS011;16599;47.078;15.536;2022-11-15T10:12:45;267.95;;;71.15;;
29686;SDS011;16599;47.078;15.536;2022-11-15T10:15:16;241.40;;;69.85;;
29686;SDS011;16599;47.078;15.536;2022-11-15T10:20:37;237.27;;;69.22;;
29686;SDS011;16599;47.078;15.536;2022-11-15T10:23:15;230.93;;;66.60;;
29686;SDS011;16599;47.078;15.536;2022-11-15T10:25:45;229.00;;;66.57;;
29686;SDS011;16599;47.078;15.536;2022-11-15T10:30:43;208.75;;;61.22;;
29686;SDS011;16599;47.078;15.536;2022-11-15T10:33:30;199.40;;;60.80;;
29686;SDS011;16599;47.078;15.536;2022-11-15T10:41:22;156.82;;;53.28;;
29686;SDS011;16599;47.078;15.536;2022-11-15T10:47:16;163.15;;;56.33;;
29686;SDS011;16599;47.078;15.536;2022-11-15T10:49:53;178.73;;;54.73;;
29686;SDS011;16599;47.078;15.536;2022-11-15T10:52:46;188.73;;;57.35;;
29686;SDS011;16599;47.078;15.536;2022-11-15T10:57:49;168.88;;;55.90;;
29686;SDS011;16599;47.078;15.536;2022-11-15T11:02:58;153.88;;;53.78;;
29686;SDS011;16599;47.078;15.536;2022-11-15T11:05:29;154.82;;;52.58;;
29686;SDS011;16599;47.078;15.536;2022-11-15T11:10:37;147.88;;;50.60;;
29686;SDS011;16599;47.078;15.536;2022-11-15T11:21:25;130.63;;;46.53;;
29686;SDS011;16599;47.078;15.536;2022-11-15T11:27:02;113.97;;;44.83;;
29686;SDS011;16599;47.078;15.536;2022-11-15T11:35:45;124.28;;;45.25;;
29686;SDS011;16599;47.078;15.536;2022-11-15T11:38:17;130.88;;;46.35;;
29686;SDS011;16599;47.078;15.536;2022-11-15T11:41:09;127.75;;;46.95;;
29686;SDS011;16599;47.078;15.536;2022-11-15T11:44:14;124.82;;;47.97;;
29686;SDS011;16599;47.078;15.536;2022-11-15T11:46:51;131.90;;;49.15;;
29686;SDS011;16599;47.078;15.536;2022-11-15T11:49:41;117.43;;;45.25;;
29686;SDS011;16599;47.078;15.536;2022-11-15T11:55:18;117.32;;;46.15;;
29686;SDS011;16599;47.078;15.536;2022-11-15T11:58:09;106.80;;;43.05;;
29686;SDS011;16599;47.078;15.536;2022-11-15T12:00:46;104.23;;;42.83;;
29686;SDS011;16599;47.078;15.536;2022-11-15T12:06:16;104.03;;;42.20;;
29686;SDS011;16599;47.078;15.536;2022-11-15T12:08:58;102.43;;;43.40;;
29686;SDS011;16599;47.078;15.536;2022-11-15T12:17:12;112.93;;;42.53;;
29686;SDS011;16599;47.078;15.536;2022-11-15T12:19:39;101.57;;;42.83;;
29686;SDS011;16599;47.078;15.536;2022-11-15T12:22:27;100.60;;;42.60;;
29686;SDS011;16599;47.078;15.536;2022-11-15T12:27:40;93.80;;;41.15;;
29686;SDS011;16599;47.078;15.536;2022-11-15T12:30:31;98.47;;;40.17;;
29686;SDS011;16599;47.078;15.536;2022-11-15T12:33:32;102.05;;;52.50;;
29686;SDS011;16599;47.078;15.536;2022-11-15T12:36:05;90.93;;;38.92;;
29686;SDS011;16599;47.078;15.536;2022-11-15T12:41:34;86.18;;;38.35;;
29686;SDS011;16599;47.078;15.536;2022-11-15T12:44:03;83.03;;;37.38;;
29686;SDS011;16599;47.078;15.536;2022-11-15T13:19:46;85.45;;;36.28;;
29686;SDS011;16599;47.078;15.536;2022-11-15T13:22:14;91.32;;;38.45;;
29686;SDS011;16599;47.078;15.536;2022-11-15T13:31:18;86.95;;;37.30;;
29686;SDS011;16599;47.078;15.536;2022-11-15T13:33:51;83.63;;;38.63;;
29686;SDS011;16599;47.078;15.536;2022-11-15T13:36:23;88.00;;;38.40;;
29686;SDS011;16599;47.078;15.536;2022-11-15T13:41:34;83.80;;;36.92;;
29686;SDS011;16599;47.078;15.536;2022-11-15T13:44:18;73.03;;;35.63;;
29686;SDS011;16599;47.078;15.536;2022-11-15T13:46:47;83.28;;;38.58;;
29686;SDS011;16599;47.078;15.536;2022-11-15T13:49:14;85.28;;;37.65;;
29686;SDS011;16599;47.078;15.536;2022-11-15T13:51:45;77.40;;;37.05;;
29686;SDS011;16599;47.078;15.536;2022-11-15T13:54:20;77.32;;;36.20;;
29686;SDS011;16599;47.078;15.536;2022-11-15T13:57:19;78.43;;;35.42;;
29686;SDS011;16599;47.078;15.536;2022-11-15T14:00:00;73.50;;;34.42;;
29686;SDS011;16599;47.078;15.536;2022-11-15T14:02:30;75.60;;;33.78;;
29686;SDS011;16599;47.078;15.536;2022-11-15T14:05:02;81.57;;;37.00;;
29686;SDS011;16599;47.078;15.536;2022-11-15T14:07:55;79.53;;;35.63;;
29686;SDS011;16599;47.078;15.536;2022-11-15T14:10:32;86.50;;;46.05;;
29686;SDS011;16599;47.078;15.536;2022-11-15T14:16:12;73.47;;;33.00;;
29686;SDS011;16599;47.078;15.536;2022-11-15T14:18:47;75.10;;;35.97;;
29686;SDS011;16599;47.078;15.536;2022-11-15T14:21:16;74.95;;;34.35;;
29686;SDS011;16599;47.078;15.536;2022-11-15T14:23:44;77.85;;;34.50;;
29686;SDS011;16599;47.078;15.536;2022-11-15T14:32:12;73.90;;;32.58;;
29686;SDS011;16599;47.078;15.536;2022-11-15T14:35:00;73.57;;;34.50;;
29686;SDS011;16599;47.078;15.536;2022-11-15T14:37:32;83.43;;;34.88;;
29686;SDS011;16599;47.078;15.536;2022-11-15T14:40:01;72.63;;;33.13;;
29686;SDS011;16599;47.078;15.536;2022-11-15T14:42:30;71.78;;;34.80;;
29686;SDS011;16599;47.078;15.536;2022-11-15T14:44:57;73.95;;;34.97;;
29686;SDS011;16599;47.078;15.536;2022-11-15T14:47:23;77.78;;;36.15;;
29686;SDS011;16599;47.078;15.536;2022-11-15T14:49:50;80.43;;;35.67;;
29686;SDS011;16599;47.078;15.536;2022-11-15T14:52:27;72.85;;;34.13;;
29686;SDS011;16599;47.078;15.536;2022-11-15T14:54:58;65.05;;;31.70;;
29686;SDS011;16599;47.078;15.536;2022-11-15T14:57:25;73.97;;;32.10;;
29686;SDS011;16599;47.078;15.536;2022-11-15T14:59:52;72.75;;;32.17;;
29686;SDS011;16599;47.078;15.536;2022-11-15T15:02:20;78.13;;;35.08;;
29686;SDS011;16599;47.078;15.536;2022-11-15T15:04:48;78.13;;;34.85;;
29686;SDS011;16599;47.078;15.536;2022-11-15T15:07:16;77.72;;;35.08;;
29686;SDS011;16599;47.078;15.536;2022-11-15T15:09:44;80.93;;;34.72;;
29686;SDS011;16599;47.078;15.536;2022-11-15T15:12:18;79.78;;;36.15;;
29686;SDS011;16599;47.078;15.536;2022-11-15T15:14:46;79.68;;;35.40;;
29686;SDS011;16599;47.078;15.536;2022-11-15T15:17:15;72.93;;;35.00;;
29686;SDS011;16599;47.078;15.536;2022-11-15T15:19:42;87.82;;;38.55;;
29686;SDS011;16599;47.078;15.536;2022-11-15T15:22:13;76.10;;;37.63;;
29686;SDS011;16599;47.078;15.536;2022-11-15T15:24:43;73.63;;;34.60;;
29686;SDS011;16599;47.078;15.536;2022-11-15T15:27:10;73.63;;;34.88;;
29686;SDS011;16599;47.078;15.536;2022-11-15T15:29:38;79.63;;;37.28;;
29686;SDS011;16599;47.078;15.536;2022-11-15T15:32:05;77.20;;;36.58;;
29686;SDS011;16599;47.078;15.536;2022-11-15T15:34:32;70.25;;;34.70;;
29686;SDS011;16599;47.078;15.536;2022-11-15T15:37:18;68.78;;;34.58;;
29686;SDS011;16599;47.078;15.536;2022-11-15T15:42:20;66.63;;;33.42;;
29686;SDS011;16599;47.078;15.536;2022-11-15T15:44:48;72.97;;;33.40;;
29686;SDS011;16599;47.078;15.536;2022-11-15T15:47:19;68.55;;;32.10;;
29686;SDS011;16599;47.078;15.536;2022-11-15T15:49:48;69.82;;;32.58;;
29686;SDS011;16599;47.078;15.536;2022-11-15T15:52:16;74.32;;;35.25;;
29686;SDS011;16599;47.078;15.536;2022-11-15T15:54:43;78.65;;;36.28;;
29686;SDS011;16599;47.078;15.536;2022-11-15T15:57:11;71.20;;;34.55;;
29686;SDS011;16599;47.078;15.536;2022-11-15T15:59:39;79.95;;;36.45;;
29686;SDS011;16599;47.078;15.536;2022-11-15T16:02:08;73.13;;;34.53;;
29686;SDS011;16599;47.078;15.536;2022-11-15T16:04:38;81.53;;;35.72;;
29686;SDS011;16599;47.078;15.536;2022-11-15T16:07:05;75.38;;;34.70;;
29686;SDS011;16599;47.078;15.536;2022-11-15T16:09:38;75.47;;;35.13;;
29686;SDS011;16599;47.078;15.536;2022-11-15T16:12:23;84.70;;;37.03;;
29686;SDS011;16599;47.078;15.536;2022-11-15T16:14:50;83.95;;;37.63;;
29686;SDS011;16599;47.078;15.536;2022-11-15T16:17:19;82.55;;;35.75;;
29686;SDS011;16599;47.078;15.536;2022-11-15T16:19:48;82.53;;;35.28;;
29686;SDS011;16599;47.078;15.536;2022-11-15T16:22:15;81.78;;;35.25;;
29686;SDS011;16599;47.078;15.536;2022-11-15T16:24:41;85.60;;;37.33;;
29686;SDS011;16599;47.078;15.536;2022-11-15T16:27:14;77.03;;;35.00;;
29686;SDS011;16599;47.078;15.536;2022-11-15T16:29:42;79.72;;;37.28;;
29686;SDS011;16599;47.078;15.536;2022-11-15T16:32:09;77.82;;;35.17;;
29686;SDS011;16599;47.078;15.536;2022-11-15T16:34:36;84.45;;;35.30;;
29686;SDS011;16599;47.078;15.536;2022-11-15T16:37:31;76.13;;;33.53;;
29686;SDS011;16599;47.078;15.536;2022-11-15T16:39:57;74.22;;;34.40;;
29686;SDS011;16599;47.078;15.536;2022-11-15T16:42:26;74.18;;;33.45;;
29686;SDS011;16599;47.078;15.536;2022-11-15T16:44:53;73.10;;;33.80;;
29686;SDS011;16599;47.078;15.536;2022-11-15T16:47:20;69.20;;;33.42;;
29686;SDS011;16599;47.078;15.536;2022-11-15T16:49:47;78.15;;;33.05;;
29686;SDS011;16599;47.078;15.536;2022-11-15T16:52:14;69.90;;;32.45;;
29686;SDS011;16599;47.078;15.536;2022-11-15T16:54:46;67.85;;;33.35;;
29686;SDS011;16599;47.078;15.536;2022-11-15T16:57:13;70.82;;;32.67;;
29686;SDS011;16599;47.078;15.536;2022-11-15T16:59:41;65.78;;;32.15;;
29686;SDS011;16599;47.078;15.536;2022-11-15T17:02:19;68.30;;;31.90;;